createdAt,value
2023-01-22T00:00:25.291Z,40.10
2023-01-22T00:02:54.400Z,41.03
2023-01-22T00:05:23.388Z,49.40
2023-01-22T00:07:52.383Z,49.13
2023-01-22T00:10:21.450Z,53.77
2023-01-22T00:12:50.403Z,58.97
2023-01-22T00:15:19.588Z,67.13
2023-01-22T00:17:50.007Z,62.00
2023-01-22T00:20:19.860Z,62.20
2023-01-22T00:22:49.159Z,60.80
2023-01-22T00:25:18.385Z,60.33
2023-01-22T00:27:47.478Z,66.90
2023-01-22T00:30:16.909Z,68.37
2023-01-22T00:32:49.418Z,80.10
2023-01-22T00:35:18.589Z,77.83
2023-01-22T00:37:49.037Z,85.33
2023-01-22T00:40:19.190Z,89.83
2023-01-22T00:43:07.139Z,85.90
2023-01-22T00:45:36.003Z,84.90
2023-01-22T00:48:07.310Z,88.37
2023-01-22T00:50:36.344Z,81.10
2023-01-22T00:53:05.287Z,82.10
2023-01-22T00:55:34.393Z,80.70
2023-01-22T00:58:03.311Z,81.30
2023-01-22T01:00:32.610Z,88.67
2023-01-22T01:03:18.901Z,84.57
2023-01-22T01:05:49.524Z,92.00
2023-01-22T01:08:20.259Z,93.87
2023-01-22T01:10:49.463Z,88.70
2023-01-22T01:13:18.293Z,92.07
2023-01-22T01:15:47.325Z,88.37
2023-01-22T01:18:16.439Z,87.73
2023-01-22T01:20:45.431Z,96.10
2023-01-22T01:23:15.976Z,87.60
2023-01-22T01:25:44.961Z,101.13
2023-01-22T01:28:14.111Z,98.13
2023-01-22T01:30:43.162Z,96.97
2023-01-22T01:33:12.148Z,95.93
2023-01-22T01:35:41.594Z,98.73
2023-01-22T01:38:10.609Z,95.97
2023-01-22T01:40:45.137Z,107.00
2023-01-22T01:43:17.277Z,80.63
2023-01-22T01:45:46.624Z,68.93
2023-01-22T01:48:25.347Z,53.57
2023-01-22T01:51:01.223Z,56.63
2023-01-22T01:53:30.913Z,45.90
2023-01-22T01:56:03.789Z,42.53
2023-01-22T01:58:35.507Z,46.00
2023-01-22T02:01:10.250Z,52.60
2023-01-22T02:03:40.800Z,58.53
2023-01-22T02:06:12.687Z,58.77
2023-01-22T02:08:44.170Z,62.57
2023-01-22T02:11:15.331Z,57.73
2023-01-22T02:13:48.245Z,56.50
2023-01-22T02:16:17.500Z,55.73
2023-01-22T02:18:46.531Z,54.27
2023-01-22T02:21:45.098Z,54.17
2023-01-22T02:24:15.811Z,58.10
2023-01-22T02:26:46.685Z,188.50
2023-01-22T02:29:19.912Z,219.23
2023-01-22T02:31:49.871Z,104.93
2023-01-22T02:34:24.699Z,94.53
2023-01-22T02:36:56.303Z,86.57
2023-01-22T02:39:43.899Z,89.10
2023-01-22T02:42:13.099Z,132.20
2023-01-22T02:44:43.656Z,171.77
2023-01-22T02:47:14.245Z,128.77
2023-01-22T02:49:43.350Z,52.10
2023-01-22T02:52:13.742Z,44.90
2023-01-22T02:54:42.777Z,50.17
2023-01-22T02:57:11.906Z,46.37
2023-01-22T02:59:41.164Z,42.90
2023-01-22T03:02:13.146Z,39.73
2023-01-22T03:04:42.736Z,43.43
2023-01-22T03:07:14.206Z,43.37
2023-01-22T03:09:43.479Z,43.40
2023-01-22T03:12:13.094Z,44.40
2023-01-22T03:14:59.723Z,43.30
2023-01-22T03:17:46.093Z,46.90
2023-01-22T03:20:32.980Z,45.53
2023-01-22T03:23:03.393Z,43.80
2023-01-22T03:25:32.389Z,44.10
2023-01-22T03:28:16.728Z,46.50
2023-01-22T03:30:51.179Z,51.10
2023-01-22T03:33:20.294Z,48.43
2023-01-22T03:35:51.185Z,44.30
2023-01-22T03:38:24.020Z,39.03
2023-01-22T03:40:54.217Z,35.93
2023-01-22T03:43:24.577Z,39.17
2023-01-22T03:45:53.787Z,42.37
2023-01-22T03:48:23.969Z,47.30
2023-01-22T03:50:53.107Z,45.33
2023-01-22T03:53:23.474Z,43.80
2023-01-22T03:55:59.373Z,41.37
2023-01-22T03:58:28.539Z,35.47
2023-01-22T04:00:58.333Z,31.77
2023-01-22T04:03:29.982Z,27.60
2023-01-22T04:06:00.665Z,25.23
2023-01-22T04:08:33.094Z,25.53
2023-01-22T04:11:03.157Z,24.63
2023-01-22T04:13:34.047Z,24.30
2023-01-22T04:16:04.267Z,24.97
2023-01-22T04:19:05.440Z,23.50
2023-01-22T04:22:09.886Z,24.23
2023-01-22T04:24:41.428Z,21.60
2023-01-22T04:27:29.073Z,20.53
2023-01-22T04:29:58.805Z,20.00
2023-01-22T04:32:27.882Z,20.83
2023-01-22T04:35:15.609Z,20.53
2023-01-22T04:37:50.346Z,20.83
2023-01-22T04:40:21.272Z,20.87
2023-01-22T04:42:51.585Z,23.90
2023-01-22T04:45:21.572Z,22.80
2023-01-22T04:47:50.950Z,23.50
2023-01-22T04:50:25.690Z,23.37
2023-01-22T04:52:56.504Z,23.77
2023-01-22T04:55:28.154Z,22.33
2023-01-22T04:58:04.785Z,24.83
2023-01-22T05:00:33.947Z,24.57
2023-01-22T05:03:05.863Z,24.73
2023-01-22T05:05:35.764Z,24.13
2023-01-22T05:08:05.282Z,24.43
2023-01-22T05:10:38.879Z,25.23
2023-01-22T05:13:10.411Z,24.50
2023-01-22T05:15:41.290Z,23.80
2023-01-22T05:18:13.346Z,23.00
2023-01-22T05:20:49.621Z,22.70
2023-01-22T05:23:19.904Z,22.47
2023-01-22T05:25:51.617Z,21.40
2023-01-22T05:28:39.118Z,21.43
2023-01-22T05:31:26.367Z,24.10
2023-01-22T05:34:06.942Z,25.13
2023-01-22T05:36:36.049Z,23.23
2023-01-22T05:39:15.074Z,21.80
2023-01-22T05:41:46.185Z,23.40
2023-01-22T05:44:16.605Z,22.07
2023-01-22T05:46:52.003Z,22.00
2023-01-22T05:49:28.659Z,23.40
2023-01-22T05:51:59.092Z,25.67
2023-01-22T05:54:28.169Z,24.07
2023-01-22T05:57:00.553Z,26.63
2023-01-22T05:59:31.244Z,24.77
2023-01-22T06:02:04.381Z,24.60
2023-01-22T06:04:35.621Z,25.53
2023-01-22T06:07:23.082Z,23.10
2023-01-22T06:09:52.112Z,25.00
2023-01-22T06:12:23.524Z,25.07
2023-01-22T06:14:53.295Z,23.83
2023-01-22T06:17:22.440Z,24.63
2023-01-22T06:19:59.081Z,23.77
2023-01-22T06:22:28.571Z,24.40
2023-01-22T06:25:01.646Z,24.33
2023-01-22T06:27:49.493Z,24.63
2023-01-22T06:30:37.993Z,23.50
2023-01-22T06:33:08.424Z,22.93
2023-01-22T06:35:56.287Z,21.17
2023-01-22T06:38:26.097Z,23.27
2023-01-22T06:40:55.607Z,24.80
2023-01-22T06:43:27.702Z,22.67
2023-01-22T06:45:57.296Z,21.53
2023-01-22T06:48:44.056Z,25.87
2023-01-22T06:51:13.598Z,24.30
2023-01-22T06:53:42.832Z,22.63
2023-01-22T06:56:12.205Z,25.20
2023-01-22T06:58:43.574Z,21.97
2023-01-22T07:01:12.524Z,21.43
2023-01-22T07:03:42.561Z,22.93
2023-01-22T07:06:11.820Z,21.60
2023-01-22T07:08:41.316Z,22.53
2023-01-22T07:11:10.807Z,20.90
2023-01-22T07:13:40.216Z,20.60
2023-01-22T07:16:11.297Z,21.23
2023-01-22T07:18:40.273Z,21.53
2023-01-22T07:21:09.286Z,22.43
2023-01-22T07:23:38.227Z,21.10
2023-01-22T07:26:07.261Z,22.50
2023-01-22T07:28:36.357Z,23.20
2023-01-22T07:31:05.542Z,22.30
2023-01-22T07:33:36.157Z,22.83
2023-01-22T07:36:05.692Z,21.73
2023-01-22T07:38:34.693Z,23.03
2023-01-22T07:41:07.239Z,22.63
2023-01-22T07:43:40.431Z,21.90
2023-01-22T07:46:09.877Z,22.37
2023-01-22T07:48:40.403Z,20.00
2023-01-22T07:51:09.574Z,23.37
2023-01-22T07:53:40.278Z,27.27
2023-01-22T07:56:09.953Z,24.83
2023-01-22T07:58:39.521Z,26.40
2023-01-22T08:01:09.078Z,32.83
2023-01-22T08:03:39.869Z,32.03
2023-01-22T08:06:13.262Z,26.43
2023-01-22T08:08:42.871Z,23.20
2023-01-22T08:11:11.809Z,22.27
2023-01-22T08:13:40.790Z,21.70
2023-01-22T08:16:10.307Z,21.77
2023-01-22T08:18:40.960Z,21.07
2023-01-22T08:21:10.164Z,20.03
2023-01-22T08:23:39.059Z,20.40
2023-01-22T08:26:07.994Z,21.33
2023-01-22T08:28:38.867Z,21.50
2023-01-22T08:31:16.378Z,22.50
2023-01-22T08:33:53.537Z,22.97
2023-01-22T08:36:22.615Z,20.43
2023-01-22T08:38:51.660Z,20.67
2023-01-22T08:41:20.722Z,20.33
2023-01-22T08:43:50.016Z,20.20
2023-01-22T08:46:19.088Z,22.00
2023-01-22T08:48:49.069Z,21.97
2023-01-22T08:51:19.545Z,22.90
2023-01-22T08:53:48.526Z,25.13
2023-01-22T08:56:17.359Z,22.50
2023-01-22T08:58:46.269Z,22.40
2023-01-22T09:01:19.221Z,20.67
2023-01-22T09:03:49.006Z,20.57
2023-01-22T09:06:19.578Z,20.73
2023-01-22T09:08:48.657Z,21.67
2023-01-22T09:11:17.734Z,20.70
2023-01-22T09:13:47.672Z,24.27
2023-01-22T09:16:16.736Z,20.53
2023-01-22T09:18:45.618Z,20.73
2023-01-22T09:21:14.598Z,20.70
2023-01-22T09:23:45.709Z,21.30
2023-01-22T09:26:14.750Z,18.27
2023-01-22T09:28:44.424Z,17.90
2023-01-22T09:31:15.544Z,17.73
2023-01-22T09:33:44.622Z,16.33
2023-01-22T09:36:16.094Z,14.73
2023-01-22T09:39:05.347Z,14.93
2023-01-22T09:41:38.457Z,15.83
2023-01-22T09:44:12.459Z,22.40
2023-01-22T09:46:45.689Z,17.63
2023-01-22T09:49:17.717Z,20.33
2023-01-22T09:51:48.649Z,26.63
2023-01-22T09:54:18.987Z,21.43
2023-01-22T09:56:50.440Z,13.97
2023-01-22T09:59:21.108Z,10.07
2023-01-22T10:01:53.979Z,11.33
2023-01-22T10:04:31.255Z,13.20
2023-01-22T10:07:03.060Z,13.17
2023-01-22T10:09:35.421Z,14.47
2023-01-22T10:12:14.257Z,12.93
2023-01-22T10:14:44.853Z,13.47
2023-01-22T10:17:21.587Z,13.90
2023-01-22T10:19:55.736Z,14.17
2023-01-22T10:22:26.990Z,15.33
2023-01-22T10:24:58.710Z,13.67
2023-01-22T10:27:36.900Z,26.10
2023-01-22T10:30:17.248Z,20.17
2023-01-22T10:32:46.624Z,14.77
2023-01-22T10:35:20.086Z,14.57
2023-01-22T10:37:51.231Z,14.00
2023-01-22T10:40:27.944Z,13.33
2023-01-22T10:43:05.841Z,13.60
2023-01-22T10:45:34.964Z,12.83
2023-01-22T10:48:22.366Z,11.70
2023-01-22T10:51:03.423Z,13.17
2023-01-22T10:53:34.715Z,11.37
2023-01-22T10:56:10.349Z,11.80
2023-01-22T10:58:48.344Z,12.33
2023-01-22T11:01:33.890Z,12.50
2023-01-22T11:04:14.777Z,13.20
2023-01-22T11:06:54.382Z,14.57
2023-01-22T11:09:29.049Z,12.57
2023-01-22T11:12:06.659Z,13.67
2023-01-22T11:14:38.503Z,14.53
2023-01-22T11:17:15.670Z,14.27
2023-01-22T11:19:53.488Z,19.40
2023-01-22T11:22:28.153Z,26.23
2023-01-22T11:24:57.336Z,27.93
2023-01-22T11:27:55.907Z,25.90
2023-01-22T11:30:54.982Z,28.73
2023-01-22T11:33:38.019Z,29.67
2023-01-22T11:36:12.474Z,29.80
2023-01-22T11:38:50.017Z,28.47
2023-01-22T11:41:41.062Z,27.70
2023-01-22T11:44:36.988Z,28.30
2023-01-22T11:47:28.405Z,34.77
2023-01-22T11:50:11.959Z,29.53
2023-01-22T11:52:50.710Z,29.07
2023-01-22T11:55:29.457Z,30.03
2023-01-22T11:58:10.278Z,31.20
2023-01-22T12:00:47.296Z,32.73
2023-01-22T12:03:57.899Z,33.60
2023-01-22T12:06:56.133Z,24.17
2023-01-22T12:09:29.717Z,26.73
2023-01-22T12:12:11.100Z,26.10
2023-01-22T12:14:56.665Z,28.63
2023-01-22T12:17:42.327Z,29.17
2023-01-22T12:20:26.592Z,32.13
2023-01-22T12:23:00.997Z,29.40
2023-01-22T12:25:37.775Z,29.33
2023-01-22T12:28:13.617Z,31.13
2023-01-22T12:30:49.357Z,28.13
2023-01-22T12:33:23.731Z,24.80
2023-01-22T12:35:54.728Z,22.43
2023-01-22T12:38:36.856Z,25.47
2023-01-22T12:41:19.853Z,24.13
2023-01-22T12:43:52.778Z,20.87
2023-01-22T12:46:30.313Z,20.53
2023-01-22T12:49:07.430Z,21.23
2023-01-22T12:51:43.019Z,23.50
2023-01-22T12:54:23.195Z,23.77
2023-01-22T12:56:53.715Z,24.60
2023-01-22T12:59:33.497Z,24.30
2023-01-22T13:02:04.652Z,25.30
2023-01-22T13:04:35.697Z,23.13
2023-01-22T13:07:21.517Z,24.30
2023-01-22T13:10:01.204Z,37.23
2023-01-22T13:12:38.390Z,32.13
2023-01-22T13:15:08.260Z,38.77
2023-01-22T13:17:37.993Z,33.53
2023-01-22T13:20:18.037Z,27.07
2023-01-22T13:22:47.796Z,33.07
2023-01-22T13:25:28.031Z,35.53
2023-01-22T13:27:58.474Z,29.60
2023-01-22T13:30:31.062Z,26.70
2023-01-22T13:33:08.174Z,31.77
2023-01-22T13:35:43.014Z,30.67
2023-01-22T13:38:22.223Z,25.63
2023-01-22T13:40:55.312Z,24.80
2023-01-22T13:43:25.017Z,24.00
2023-01-22T13:45:55.932Z,24.50
2023-01-22T13:48:27.961Z,29.23
2023-01-22T13:51:02.094Z,23.83
2023-01-22T13:53:33.611Z,33.93
2023-01-22T13:56:03.024Z,26.83
2023-01-22T13:58:48.028Z,25.17
2023-01-22T14:01:29.688Z,22.67
2023-01-22T14:04:02.759Z,23.03
2023-01-22T14:06:43.784Z,22.17
2023-01-22T14:09:12.946Z,25.67
2023-01-22T14:11:42.593Z,28.77
2023-01-22T14:14:19.864Z,28.17
2023-01-22T14:16:49.085Z,28.80
2023-01-22T14:19:18.195Z,28.27
2023-01-22T14:21:48.691Z,21.30
2023-01-22T14:24:17.772Z,12.47
2023-01-22T14:26:46.663Z,10.40
2023-01-22T14:29:16.017Z,10.87
2023-01-22T14:31:45.181Z,9.80
2023-01-22T14:34:14.148Z,9.53
2023-01-22T14:36:45.134Z,8.13
2023-01-22T14:39:15.835Z,9.67
2023-01-22T14:41:44.925Z,8.77
2023-01-22T14:44:13.908Z,7.77
2023-01-22T14:46:42.940Z,8.10
2023-01-22T14:49:11.959Z,8.37
2023-01-22T14:51:41.407Z,7.33
2023-01-22T14:54:10.398Z,7.67
2023-01-22T14:56:40.932Z,6.63
2023-01-22T14:59:20.687Z,7.00
2023-01-22T15:01:51.005Z,7.30
2023-01-22T15:04:19.980Z,8.13
2023-01-22T15:06:48.938Z,8.47
2023-01-22T15:09:17.940Z,10.27
2023-01-22T15:11:48.461Z,10.67
2023-01-22T15:14:17.440Z,10.40
2023-01-22T15:16:46.408Z,9.57
2023-01-22T15:19:16.890Z,9.97
2023-01-22T15:21:47.456Z,9.93
2023-01-22T15:24:16.513Z,9.37
2023-01-22T15:26:45.370Z,9.07
2023-01-22T15:29:16.447Z,9.33
2023-01-22T15:31:45.598Z,10.47
2023-01-22T15:34:14.717Z,10.77
2023-01-22T15:36:43.677Z,9.00
2023-01-22T15:39:12.656Z,11.80
2023-01-22T15:41:41.562Z,13.30
2023-01-22T15:44:15.419Z,17.73
2023-01-22T15:46:44.862Z,19.67
2023-01-22T15:49:13.779Z,24.80
2023-01-22T15:51:43.505Z,25.83
2023-01-22T15:54:16.735Z,38.07
2023-01-22T15:56:46.082Z,43.40
2023-01-22T15:59:16.675Z,46.33
2023-01-22T16:01:45.688Z,45.60
2023-01-22T16:04:14.705Z,42.93
2023-01-22T16:06:43.681Z,39.90
2023-01-22T16:09:12.786Z,38.97
2023-01-22T16:11:41.740Z,53.53
2023-01-22T16:14:10.734Z,43.70
2023-01-22T16:16:42.628Z,45.53
2023-01-22T16:19:13.711Z,50.10
2023-01-22T16:21:43.680Z,54.57
2023-01-22T16:24:12.904Z,68.60
2023-01-22T16:26:41.845Z,109.43
2023-01-22T16:29:11.645Z,79.40
2023-01-22T16:31:42.184Z,90.67
2023-01-22T16:34:13.680Z,82.33
2023-01-22T16:36:43.487Z,77.37
2023-01-22T16:39:18.694Z,84.60
2023-01-22T16:41:49.020Z,85.67
2023-01-22T16:44:19.641Z,112.47
2023-01-22T16:46:52.588Z,113.57
2023-01-22T16:49:23.385Z,130.70
2023-01-22T16:51:54.177Z,131.87
2023-01-22T16:54:28.175Z,105.23
2023-01-22T16:56:58.274Z,78.97
2023-01-22T16:59:45.813Z,59.27
2023-01-22T17:02:19.317Z,67.33
2023-01-22T17:04:48.589Z,54.27
2023-01-22T17:07:32.249Z,74.00
2023-01-22T17:10:02.671Z,67.43
2023-01-22T17:12:31.866Z,74.20
2023-01-22T17:15:00.957Z,52.37
2023-01-22T17:17:31.431Z,50.60
2023-01-22T17:20:00.491Z,50.00
2023-01-22T17:22:29.462Z,41.37
2023-01-22T17:24:58.424Z,34.50
2023-01-22T17:27:27.473Z,30.40
2023-01-22T17:29:56.455Z,26.27
2023-01-22T17:32:26.773Z,25.17
2023-01-22T17:34:57.362Z,23.30
2023-01-22T17:37:26.554Z,39.43
2023-01-22T17:39:55.486Z,31.87
2023-01-22T17:42:24.548Z,27.10
2023-01-22T17:44:53.668Z,29.50
2023-01-22T17:47:22.688Z,26.60
2023-01-22T17:49:51.878Z,26.20
2023-01-22T17:52:23.682Z,28.73
2023-01-22T17:54:54.855Z,27.47
2023-01-22T17:57:23.959Z,28.23
2023-01-22T17:59:53.054Z,32.73
2023-01-22T18:02:22.062Z,37.90
2023-01-22T18:04:52.329Z,38.00
2023-01-22T18:07:41.188Z,32.50
2023-01-22T18:10:11.717Z,32.50
2023-01-22T18:12:41.211Z,33.93
2023-01-22T18:15:12.317Z,35.63
2023-01-22T18:17:42.227Z,37.40
2023-01-22T18:20:13.653Z,38.77
2023-01-22T18:22:44.505Z,38.20
2023-01-22T18:25:13.934Z,40.47
2023-01-22T18:27:43.061Z,39.03
2023-01-22T18:30:15.156Z,36.13
2023-01-22T18:32:44.572Z,36.23
2023-01-22T18:35:13.482Z,33.67
2023-01-22T18:37:44.016Z,34.77
2023-01-22T18:40:14.526Z,34.20
2023-01-22T18:42:43.655Z,32.97
2023-01-22T18:45:13.598Z,33.07
2023-01-22T18:47:42.634Z,31.97
2023-01-22T18:50:16.878Z,31.90
2023-01-22T18:52:47.339Z,32.90
2023-01-22T18:55:17.723Z,31.40
2023-01-22T18:58:21.758Z,32.20
2023-01-22T19:01:12.207Z,30.30
2023-01-22T19:03:42.127Z,30.40
2023-01-22T19:06:14.833Z,30.43
2023-01-22T19:08:48.143Z,30.57
2023-01-22T19:11:17.976Z,31.50
2023-01-22T19:13:47.824Z,33.03
2023-01-22T19:16:19.016Z,32.17
2023-01-22T19:18:48.162Z,31.77
2023-01-22T19:21:19.155Z,32.30
2023-01-22T19:23:51.754Z,31.23
2023-01-22T19:26:24.218Z,29.83
2023-01-22T19:28:55.039Z,28.70
2023-01-22T19:31:26.198Z,27.73
2023-01-22T19:33:56.369Z,27.80
2023-01-22T19:36:27.678Z,26.37
2023-01-22T19:38:59.398Z,25.60
2023-01-22T19:41:31.728Z,26.30
2023-01-22T19:44:02.839Z,27.63
2023-01-22T19:46:32.036Z,32.77
2023-01-22T19:49:00.938Z,33.40
2023-01-22T19:51:30.993Z,29.33
2023-01-22T19:54:04.833Z,29.40
2023-01-22T19:56:37.409Z,29.00
2023-01-22T19:59:09.255Z,27.67
2023-01-22T20:01:39.654Z,27.97
2023-01-22T20:04:12.827Z,27.10
2023-01-22T20:06:45.498Z,28.63
2023-01-22T20:09:19.777Z,29.73
2023-01-22T20:11:54.287Z,29.70
2023-01-22T20:14:24.477Z,28.30
2023-01-22T20:16:54.430Z,28.90
2023-01-22T20:19:23.520Z,29.07
2023-01-22T20:21:52.617Z,27.57
2023-01-22T20:24:23.055Z,27.80
2023-01-22T20:26:55.937Z,28.53
2023-01-22T20:29:25.076Z,27.90
2023-01-22T20:31:54.411Z,28.17
2023-01-22T20:34:23.757Z,27.93
2023-01-22T20:36:52.798Z,28.50
2023-01-22T20:39:23.164Z,29.73
2023-01-22T20:41:52.201Z,30.73
2023-01-22T20:44:21.349Z,31.37
2023-01-22T20:46:51.231Z,32.80
2023-01-22T20:49:20.471Z,31.60
2023-01-22T20:52:08.091Z,30.53
2023-01-22T20:54:50.037Z,32.83
2023-01-22T20:57:27.756Z,32.37
2023-01-22T20:59:57.197Z,34.17
2023-01-22T21:02:27.562Z,33.80
2023-01-22T21:04:56.849Z,40.63
2023-01-22T21:07:25.793Z,34.57
2023-01-22T21:09:56.274Z,34.50
2023-01-22T21:12:25.446Z,54.73
2023-01-22T21:14:55.869Z,63.50
2023-01-22T21:17:25.046Z,80.40
2023-01-22T21:19:55.520Z,82.57
2023-01-22T21:22:25.418Z,74.87
2023-01-22T21:24:56.585Z,75.07
2023-01-22T21:27:26.140Z,73.43
2023-01-22T21:29:56.032Z,87.00
2023-01-22T21:32:25.746Z,98.70
2023-01-22T21:34:55.707Z,96.67
2023-01-22T21:37:25.227Z,100.23
2023-01-22T21:39:56.030Z,107.77
2023-01-22T21:42:42.638Z,112.00
2023-01-22T21:45:29.887Z,108.90
2023-01-22T21:47:59.352Z,93.57
2023-01-22T21:50:28.348Z,91.37
2023-01-22T21:52:58.033Z,89.33
2023-01-22T21:55:53.482Z,89.97
2023-01-22T21:58:23.716Z,88.37
2023-01-22T22:00:54.991Z,92.87
2023-01-22T22:03:24.077Z,89.17
2023-01-22T22:05:57.668Z,88.40
2023-01-22T22:08:26.685Z,90.00
2023-01-22T22:10:57.620Z,88.97
2023-01-22T22:13:26.769Z,87.50
2023-01-22T22:15:55.738Z,91.23
2023-01-22T22:18:24.732Z,85.57
2023-01-22T22:20:54.020Z,87.97
2023-01-22T22:23:23.046Z,98.40
2023-01-22T22:25:52.028Z,93.43
2023-01-22T22:28:22.398Z,90.90
2023-01-22T22:30:51.519Z,109.17
2023-01-22T22:33:20.570Z,88.30
2023-01-22T22:35:49.687Z,86.43
2023-01-22T22:38:18.624Z,85.43
2023-01-22T22:40:58.391Z,87.37
2023-01-22T22:43:28.979Z,84.43
2023-01-22T22:46:02.195Z,88.30
2023-01-22T22:48:31.469Z,77.77
2023-01-22T22:51:00.997Z,76.50
2023-01-22T22:53:30.198Z,76.40
2023-01-22T22:55:59.169Z,68.83
2023-01-22T22:58:29.740Z,66.30
2023-01-22T23:00:58.737Z,66.17
2023-01-22T23:03:27.675Z,67.67
2023-01-22T23:05:56.676Z,65.83
2023-01-22T23:08:25.633Z,61.33
2023-01-22T23:10:54.558Z,62.47
2023-01-22T23:13:23.675Z,60.83
2023-01-22T23:15:54.117Z,56.30
2023-01-22T23:18:23.208Z,55.53
2023-01-22T23:20:52.131Z,52.43
2023-01-22T23:23:21.135Z,48.47
2023-01-22T23:26:12.620Z,44.17
2023-01-22T23:28:41.652Z,43.50
2023-01-22T23:31:14.476Z,41.87
2023-01-22T23:33:43.992Z,40.93
2023-01-22T23:36:15.076Z,58.80
2023-01-22T23:38:44.071Z,71.03
2023-01-22T23:41:15.737Z,80.70
2023-01-22T23:43:45.671Z,100.13
2023-01-22T23:46:18.508Z,117.33
2023-01-22T23:48:47.636Z,121.70
2023-01-22T23:51:18.282Z,120.57
2023-01-22T23:53:49.111Z,124.27
2023-01-22T23:56:36.759Z,127.53
2023-01-22T23:59:06.112Z,130.53
